Time;durP1;ratioP1;P1;durP2;ratioP2;P2;SDS_P1;SDS_P2;PMS_P1;PMS_P2;Temp;Humidity;BMP_temperature;BMP_pressure;BME280_temperature;BME280_humidity;BME280_pressure;Samples;Min_cycle;Max_cycle;Signal;HPM_P1;HPM_P2
2022/05/21 00:01:54;;;;;;;14.52;10.50;;;13.00;69.00;;;;;;5014963;28;20416;-75
2022/05/21 00:04:19;;;;;;;18.60;10.70;;;13.00;68.90;;;;;;5012883;28;21936;-75
2022/05/21 00:06:45;;;;;;;17.50;11.23;;;13.00;68.70;;;;;;5018982;28;20813;-75
2022/05/21 00:09:12;;;;;;;16.50;11.70;;;13.10;67.70;;;;;;5013404;28;20411;-75
2022/05/21 00:11:38;;;;;;;17.70;11.70;;;13.00;68.80;;;;;;5010923;28;20403;-75
2022/05/21 00:14:04;;;;;;;20.17;10.98;;;12.90;71.20;;;;;;5013397;28;20402;-75
2022/05/21 00:16:30;;;;;;;15.80;10.95;;;12.80;72.30;;;;;;5017212;28;20401;-75
2022/05/21 00:18:57;;;;;;;16.90;11.95;;;12.80;72.10;;;;;;5017854;28;20408;-75
2022/05/21 00:21:23;;;;;;;15.98;11.18;;;12.80;73.10;;;;;;5017080;28;20419;-75
2022/05/21 00:23:50;;;;;;;18.50;11.40;;;12.80;71.90;;;;;;5016462;28;20409;-76
2022/05/21 00:26:16;;;;;;;20.88;11.50;;;12.80;73.60;;;;;;5018538;28;20930;-75
2022/05/21 00:28:44;;;;;;;20.88;11.50;;;12.80;73.80;;;;;;5019327;28;20964;-75
2022/05/21 00:31:12;;;;;;;16.55;10.82;;;12.80;73.80;;;;;;5010925;28;20437;-76
2022/05/21 00:33:38;;;;;;;15.85;10.75;;;12.90;74.90;;;;;;5010990;28;20420;-76
2022/05/21 00:36:04;;;;;;;16.17;11.17;;;12.90;73.70;;;;;;5010297;28;20403;-76
2022/05/21 00:38:30;;;;;;;22.85;11.15;;;12.80;75.20;;;;;;5010619;28;20400;-75
2022/05/21 00:40:56;;;;;;;20.90;11.18;;;12.60;77.20;;;;;;5010545;28;20818;-76
2022/05/21 00:43:53;;;;;;;16.83;10.75;;;12.60;79.10;;;;;;5010380;28;20415;-76
2022/05/21 00:46:29;;;;;;;18.65;11.30;;;12.50;80.50;;;;;;5006978;28;20414;-75
2022/05/21 00:49:15;;;;;;;16.55;10.70;;;12.60;80.30;;;;;;5015391;28;20862;-75
2022/05/21 00:51:58;;;;;;;17.38;10.60;;;12.60;80.70;;;;;;5010767;28;20408;-75
2022/05/21 00:54:29;;;;;;;20.67;10.88;;;12.60;79.70;;;;;;5008622;28;20479;-75
2022/05/21 00:57:23;;;;;;;19.90;11.50;;;12.60;80.00;;;;;;5020704;28;20492;-78
2022/05/21 00:59:54;;;;;;;17.48;10.02;;;12.70;79.70;;;;;;5014599;28;20553;-76
2022/05/21 01:02:23;;;;;;;16.13;10.43;;;12.70;79.80;;;;;;5011943;28;20408;-76
2022/05/21 01:04:49;;;;;;;17.45;10.80;;;12.70;79.30;;;;;;5011934;28;20413;-75
2022/05/21 01:07:15;;;;;;;13.73;10.40;;;12.60;81.10;;;;;;5023779;28;20449;-75
2022/05/21 01:09:49;;;;;;;19.17;10.73;;;12.50;82.70;;;;;;5017564;28;20400;-77
2022/05/21 01:12:14;;;;;;;17.05;10.90;;;12.50;84.90;;;;;;5014776;28;20499;-76
2022/05/21 01:14:40;;;;;;;17.80;9.15;;;12.40;84.60;;;;;;5014150;28;20495;-77
2022/05/21 01:17:07;;;;;;;19.90;11.13;;;12.60;81.30;;;;;;5014551;28;20940;-76
2022/05/21 01:19:32;;;;;;;15.52;10.15;;;12.60;80.20;;;;;;5012786;28;20484;-76
2022/05/21 01:21:59;;;;;;;16.57;10.10;;;12.70;78.30;;;;;;5014310;28;20500;-77
2022/05/21 01:24:24;;;;;;;14.95;9.02;;;12.80;76.90;;;;;;5016479;28;20914;-77
2022/05/21 01:26:50;;;;;;;17.23;9.80;;;12.80;77.20;;;;;;5026068;28;20412;-76
2022/05/21 01:29:24;;;;;;;14.43;8.90;;;12.70;77.90;;;;;;5022501;28;20890;-75
2022/05/21 01:31:52;;;;;;;17.63;10.00;;;12.70;77.10;;;;;;5020964;28;20483;-75
2022/05/21 01:34:18;;;;;;;13.95;9.57;;;12.80;76.50;;;;;;5025226;28;20472;-76
2022/05/21 01:36:43;;;;;;;17.77;10.63;;;12.80;76.50;;;;;;5020972;28;20884;-76
2022/05/21 01:39:09;;;;;;;19.17;10.30;;;12.90;75.90;;;;;;5024002;28;20404;-76
2022/05/21 01:41:35;;;;;;;19.60;10.27;;;12.90;75.20;;;;;;5014372;28;20401;-77
2022/05/21 01:46:45;;;;;;;16.55;10.30;;;12.90;74.50;;;;;;5019074;28;20419;-76
2022/05/21 01:49:10;;;;;;;17.80;10.10;;;12.90;75.10;;;;;;5014499;28;20401;-75
2022/05/21 01:51:36;;;;;;;14.80;9.60;;;12.90;74.10;;;;;;5013849;28;20414;-76
2022/05/21 01:54:02;;;;;;;17.42;9.70;;;12.80;75.00;;;;;;5019102;28;20974;-76
2022/05/21 01:56:27;;;;;;;17.77;10.10;;;12.80;74.70;;;;;;5015850;28;20400;-76
2022/05/21 01:58:53;;;;;;;15.87;9.27;;;12.80;75.00;;;;;;5021826;28;20427;-77
2022/05/21 02:01:20;;;;;;;18.23;9.33;;;12.70;76.10;;;;;;5011945;28;20418;-76
2022/05/21 02:03:45;;;;;;;18.17;9.80;;;12.70;76.50;;;;;;5007357;28;20400;-76
2022/05/21 02:06:11;;;;;;;15.90;9.70;;;12.60;76.60;;;;;;5024714;28;20884;-76
2022/05/21 02:08:37;;;;;;;20.80;10.37;;;12.70;74.30;;;;;;5012698;28;20424;-75
2022/05/21 02:11:03;;;;;;;15.80;9.00;;;12.70;73.90;;;;;;5021738;28;20426;-77
2022/05/21 02:13:31;;;;;;;18.00;9.18;;;12.70;71.70;;;;;;5022131;28;20554;-75
2022/05/21 02:15:57;;;;;;;17.90;9.57;;;12.70;73.90;;;;;;5020709;28;20397;-76
2022/05/21 02:18:23;;;;;;;17.92;9.32;;;12.70;73.00;;;;;;5014784;28;20874;-76
2022/05/21 02:20:50;;;;;;;16.08;9.25;;;12.80;72.50;;;;;;5011949;28;20400;-76
2022/05/21 02:23:17;;;;;;;19.40;9.45;;;12.70;73.70;;;;;;5011761;28;20420;-76
2022/05/21 02:25:43;;;;;;;23.33;9.80;;;12.70;74.90;;;;;;5022778;28;20409;-76
2022/05/21 02:28:09;;;;;;;15.88;8.90;;;12.60;76.40;;;;;;5017490;28;20498;-76
2022/05/21 02:30:35;;;;;;;16.58;8.60;;;12.70;73.30;;;;;;5013445;28;20765;-76
2022/05/21 02:33:00;;;;;;;19.40;9.10;;;12.80;72.80;;;;;;5021794;28;20395;-77
2022/05/21 02:35:26;;;;;;;13.30;7.70;;;12.90;70.90;;;;;;5021982;28;20483;-77
2022/05/21 02:40:36;;;;;;;17.50;7.72;;;13.30;64.50;;;;;;5027814;28;20391;-77
2022/05/21 02:43:01;;;;;;;15.82;7.53;;;13.30;64.60;;;;;;5019083;28;20525;-77
2022/05/21 02:45:28;;;;;;;18.23;7.30;;;13.40;62.70;;;;;;5017332;28;20408;-75
2022/05/21 02:47:54;;;;;;;14.43;7.30;;;13.50;60.20;;;;;;5015362;28;20511;-77
2022/05/21 02:50:26;;;;;;;15.52;7.20;;;13.60;61.20;;;;;;5014376;28;20495;-76
2022/05/21 02:52:51;;;;;;;12.35;5.93;;;13.60;59.30;;;;;;5010573;28;20397;-75
2022/05/21 02:55:18;;;;;;;16.80;6.82;;;13.60;60.10;;;;;;5013654;28;20450;-76
2022/05/21 02:57:44;;;;;;;20.23;7.27;;;13.60;60.00;;;;;;5013924;28;20582;-77
2022/05/21 03:00:12;;;;;;;17.00;6.60;;;13.70;58.10;;;;;;5025233;28;20431;-76
2022/05/21 03:02:37;;;;;;;12.95;6.30;;;13.70;57.60;;;;;;5011516;28;20412;-76
2022/05/21 03:05:04;;;;;;;17.73;6.40;;;13.80;56.90;;;;;;5024990;28;20412;-76
2022/05/21 03:07:31;;;;;;;14.30;5.80;;;13.90;56.60;;;;;;5013023;28;20405;-76
2022/05/21 03:12:40;;;;;;;11.90;5.70;;;13.90;55.60;;;;;;5015536;28;20411;-76
2022/05/21 03:15:06;;;;;;;13.75;5.50;;;13.80;55.30;;;;;;5012560;28;20404;-76
2022/05/21 03:17:32;;;;;;;13.02;5.93;;;13.80;55.20;;;;;;5011397;28;20401;-76
2022/05/21 03:19:58;;;;;;;9.90;4.90;;;13.80;56.10;;;;;;5024190;28;20885;-76
2022/05/21 03:22:23;;;;;;;13.18;5.13;;;13.80;57.00;;;;;;5014203;28;20865;-76
2022/05/21 03:24:49;;;;;;;14.85;5.22;;;13.70;57.30;;;;;;5013031;28;20465;-76
2022/05/21 03:27:14;;;;;;;9.35;4.93;;;13.70;57.10;;;;;;5012948;28;20487;-76
2022/05/21 03:29:40;;;;;;;13.03;4.80;;;13.80;56.60;;;;;;5002890;28;20484;-76
2022/05/21 03:32:07;;;;;;;9.60;4.90;;;13.80;56.30;;;;;;5013974;28;20400;-76
2022/05/21 03:34:33;;;;;;;13.75;5.70;;;13.80;55.60;;;;;;5012200;28;20396;-77
2022/05/21 03:36:59;;;;;;;11.45;4.70;;;13.80;56.40;;;;;;5012979;28;20890;-77
2022/05/21 03:39:25;;;;;;;11.80;5.10;;;13.80;56.20;;;;;;5020513;28;20465;-76
2022/05/21 03:41:50;;;;;;;11.93;4.90;;;13.80;56.00;;;;;;5016098;28;20503;-77
2022/05/21 03:44:16;;;;;;;13.27;5.47;;;13.80;56.60;;;;;;5012096;28;20403;-77
2022/05/21 03:46:41;;;;;;;10.77;5.00;;;13.70;56.80;;;;;;5011621;28;20448;-76
2022/05/21 03:49:08;;;;;;;16.38;5.20;;;13.80;56.60;;;;;;5015817;28;20408;-76
2022/05/21 03:51:33;;;;;;;13.52;4.82;;;13.80;55.90;;;;;;5016455;28;20400;-75
2022/05/21 03:53:59;;;;;;;10.57;5.20;;;13.70;57.90;;;;;;5011776;28;20405;-75
2022/05/21 03:56:24;;;;;;;12.32;5.25;;;13.70;56.90;;;;;;5011981;28;20502;-76
2022/05/21 03:58:50;;;;;;;13.35;5.43;;;13.80;56.60;;;;;;5016450;28;20786;-75
2022/05/21 04:01:16;;;;;;;13.30;4.80;;;13.80;55.90;;;;;;5019462;28;20405;-75
2022/05/21 04:03:42;;;;;;;15.80;5.50;;;13.80;56.80;;;;;;5011640;28;20401;-75
2022/05/21 04:06:07;;;;;;;13.40;5.18;;;13.70;57.80;;;;;;5015776;28;20447;-76
2022/05/21 04:08:33;;;;;;;17.95;5.45;;;13.70;57.00;;;;;;5015345;28;20474;-76
2022/05/21 04:10:59;;;;;;;17.92;5.63;;;13.70;56.60;;;;;;5023150;28;20874;-75
2022/05/21 04:13:26;;;;;;;16.60;5.45;;;13.70;57.00;;;;;;5012055;28;20905;-76
2022/05/21 04:15:51;;;;;;;13.70;4.82;;;13.80;56.80;;;;;;5016408;28;20420;-80
2022/05/21 04:18:18;;;;;;;12.95;5.20;;;13.80;55.90;;;;;;5013061;28;20463;-76
2022/05/21 04:20:43;;;;;;;15.43;5.30;;;13.80;55.70;;;;;;5011777;28;20427;-76
2022/05/21 04:23:09;;;;;;;12.87;5.10;;;13.80;55.40;;;;;;5027548;28;20402;-78
2022/05/21 04:25:35;;;;;;;12.63;4.97;;;13.80;55.40;;;;;;5020370;28;20435;-77
2022/05/21 04:28:01;;;;;;;10.63;5.05;;;13.90;54.40;;;;;;5025060;28;20784;-77
2022/05/21 04:30:28;;;;;;;18.05;5.68;;;13.80;54.20;;;;;;5016942;28;20418;-76
2022/05/21 04:32:57;;;;;;;13.57;5.63;;;13.80;55.30;;;;;;5012003;28;20407;-76
2022/05/21 04:35:24;;;;;;;10.52;5.40;;;13.80;54.00;;;;;;5014752;28;20404;-78
2022/05/21 04:37:51;;;;;;;17.15;6.13;;;13.80;54.70;;;;;;5017513;28;20415;-78
2022/05/21 04:40:20;;;;;;;15.02;5.78;;;13.90;54.70;;;;;;5026998;28;20411;-77
2022/05/21 04:42:46;;;;;;;13.90;5.38;;;13.90;52.90;;;;;;5019283;28;20833;-76
2022/05/21 04:45:13;;;;;;;14.00;6.20;;;13.90;54.30;;;;;;5023948;28;20407;-77
2022/05/21 04:47:39;;;;;;;15.18;6.50;;;13.90;54.10;;;;;;5020910;28;20484;-77
2022/05/21 04:50:07;;;;;;;14.25;5.97;;;13.90;53.10;;;;;;5016417;28;20421;-77
2022/05/21 04:52:33;;;;;;;24.88;6.90;;;13.90;53.80;;;;;;5012582;28;20901;-77
2022/05/21 04:55:02;;;;;;;18.15;6.60;;;13.90;52.60;;;;;;5015512;28;20409;-76
2022/05/21 04:57:27;;;;;;;11.57;6.28;;;13.80;52.80;;;;;;5020736;28;21057;-77
2022/05/21 04:59:53;;;;;;;15.60;6.47;;;13.80;52.40;;;;;;5027904;28;20408;-77
2022/05/21 05:02:18;;;;;;;17.20;6.40;;;13.90;52.70;;;;;;5017530;28;20401;-76
2022/05/21 05:04:44;;;;;;;11.77;6.27;;;13.90;52.30;;;;;;5020732;28;20499;-78
2022/05/21 05:07:10;;;;;;;14.77;6.47;;;13.90;53.10;;;;;;5016365;28;20460;-77
2022/05/21 05:09:43;;;;;;;14.43;6.10;;;14.00;51.40;;;;;;5012295;28;21098;-77
2022/05/21 05:12:09;;;;;;;9.80;6.03;;;14.00;51.50;;;;;;5013557;28;20417;-77
2022/05/21 05:14:36;;;;;;;17.25;7.20;;;14.00;51.30;;;;;;5025818;28;20449;-78
2022/05/21 05:17:03;;;;;;;18.67;7.10;;;14.10;50.40;;;;;;5013586;28;20450;-78
2022/05/21 05:19:31;;;;;;;17.50;6.68;;;14.20;49.80;;;;;;5024215;28;20909;-78
2022/05/21 05:21:57;;;;;;;16.35;7.65;;;14.30;49.90;;;;;;5018751;28;20431;-77
2022/05/21 05:24:23;;;;;;;16.98;7.15;;;14.30;47.90;;;;;;5025453;28;20479;-78
2022/05/21 05:26:48;;;;;;;16.30;7.70;;;14.50;47.50;;;;;;5019944;28;20878;-77
2022/05/21 05:29:14;;;;;;;15.57;6.57;;;14.60;47.50;;;;;;5010823;28;20409;-78
2022/05/21 05:31:40;;;;;;;15.40;6.68;;;14.70;45.90;;;;;;5015774;28;20403;-77
2022/05/21 05:34:05;;;;;;;13.87;6.47;;;14.80;45.60;;;;;;5022956;28;20401;-75
2022/05/21 05:36:31;;;;;;;15.93;7.30;;;14.90;45.30;;;;;;5012268;28;20397;-78
2022/05/21 05:38:59;;;;;;;22.25;9.10;;;15.00;44.00;;;;;;5012793;28;20492;-77
2022/05/21 05:41:25;;;;;;;17.58;7.55;;;15.00;43.60;;;;;;5015279;28;20409;-76
2022/05/21 05:43:53;;;;;;;18.77;7.60;;;15.00;45.30;;;;;;5017044;28;20751;-76
2022/05/21 05:46:18;;;;;;;15.10;6.90;;;15.10;43.90;;;;;;5022319;28;20407;-76
2022/05/21 05:48:44;;;;;;;16.53;6.77;;;15.20;43.00;;;;;;5022160;28;20765;-75
2022/05/21 05:51:09;;;;;;;15.00;7.20;;;15.30;42.70;;;;;;5008025;28;20413;-77
2022/05/21 05:53:35;;;;;;;18.63;7.47;;;15.20;42.90;;;;;;5014187;28;20400;-77
2022/05/21 05:56:00;;;;;;;20.42;7.50;;;15.20;43.30;;;;;;5027305;28;20770;-76
2022/05/21 06:01:10;;;;;;;16.75;6.85;;;15.30;43.50;;;;;;5017779;28;20524;-77
2022/05/21 06:03:37;;;;;;;13.80;6.65;;;15.50;42.40;;;;;;5021319;28;20407;-76
2022/05/21 06:06:04;;;;;;;14.93;6.20;;;15.60;42.30;;;;;;5024129;28;20533;-74
2022/05/21 06:08:29;;;;;;;15.13;6.88;;;15.50;42.90;;;;;;5018280;28;20895;-76
2022/05/21 06:10:55;;;;;;;20.47;6.67;;;15.50;41.70;;;;;;5016740;28;20449;-76
2022/05/21 06:13:20;;;;;;;17.10;6.90;;;15.30;42.60;;;;;;5013393;28;20906;-77
2022/05/21 06:15:47;;;;;;;19.07;7.33;;;15.20;43.00;;;;;;5011623;28;20408;-78
2022/05/21 06:18:16;;;;;;;13.80;6.95;;;15.10;42.60;;;;;;5014164;28;20829;-74
2022/05/21 06:20:43;;;;;;;23.08;7.95;;;15.00;43.30;;;;;;5026877;28;20407;-76
2022/05/21 06:23:09;;;;;;;20.05;7.53;;;14.90;43.80;;;;;;5027084;28;20440;-78
2022/05/21 06:25:35;;;;;;;24.55;8.30;;;14.90;44.00;;;;;;5015084;28;20430;-76
2022/05/21 06:28:02;;;;;;;15.70;8.40;;;14.90;44.20;;;;;;5025081;28;20415;-77
2022/05/21 06:30:30;;;;;;;22.25;7.90;;;14.90;44.60;;;;;;5022412;28;20400;-77
2022/05/21 06:32:57;;;;;;;21.48;8.98;;;15.00;43.20;;;;;;5014582;28;20890;-78
2022/05/21 06:35:23;;;;;;;17.15;7.75;;;15.10;42.10;;;;;;5020110;28;20890;-77
2022/05/21 06:37:49;;;;;;;22.42;8.80;;;15.10;42.40;;;;;;5033250;28;20805;-78
2022/05/21 06:40:16;;;;;;;16.25;8.38;;;15.20;42.40;;;;;;5028203;28;20423;-78
2022/05/21 06:42:41;;;;;;;20.05;8.57;;;15.30;41.70;;;;;;5025640;28;20505;-78
2022/05/21 06:45:08;;;;;;;19.17;7.38;;;15.40;41.60;;;;;;5020725;28;20447;-77
2022/05/21 06:47:33;;;;;;;23.70;8.45;;;15.40;41.40;;;;;;5015425;28;20428;-78
2022/05/21 06:49:59;;;;;;;18.10;8.30;;;15.50;41.80;;;;;;5016809;28;21071;-77
2022/05/21 06:52:27;;;;;;;22.33;8.23;;;15.70;41.80;;;;;;5017756;28;20404;-76
2022/05/21 06:54:53;;;;;;;21.58;8.15;;;16.00;39.90;;;;;;5017575;28;20789;-78
2022/05/21 06:57:21;;;;;;;14.07;7.32;;;16.20;37.50;;;;;;5019509;28;20495;-77
2022/05/21 06:59:46;;;;;;;21.20;8.32;;;16.30;38.60;;;;;;5015054;28;20443;-77
2022/05/21 07:02:12;;;;;;;17.48;8.07;;;16.40;36.80;;;;;;5009846;28;20417;-76
2022/05/21 07:07:34;;;;;;;20.25;8.60;;;16.50;36.10;;;;;;5021948;28;20476;-76
2022/05/21 07:10:06;;;;;;;14.40;7.90;;;16.40;36.70;;;;;;5018308;28;20416;-76
2022/05/21 07:12:32;;;;;;;18.48;8.98;;;16.20;37.30;;;;;;5011433;28;20407;-80
2022/05/21 07:14:58;;;;;;;22.42;8.85;;;16.20;38.00;;;;;;5008135;28;20409;-75
2022/05/21 07:17:24;;;;;;;20.02;9.13;;;16.20;38.40;;;;;;5016878;28;20409;-77
2022/05/21 07:19:50;;;;;;;22.17;9.07;;;16.20;37.70;;;;;;5009798;28;20412;-77
2022/05/21 07:22:16;;;;;;;22.73;9.50;;;16.20;37.30;;;;;;5006558;28;20413;-76
2022/05/21 07:24:42;;;;;;;16.30;8.45;;;16.20;37.70;;;;;;5008902;28;20915;-76
2022/05/21 07:27:12;;;;;;;19.05;9.88;;;16.20;37.60;;;;;;5009028;28;20493;-77
2022/05/21 07:29:41;;;;;;;24.30;9.43;;;16.20;36.90;;;;;;5012436;28;20781;-76
2022/05/21 07:32:19;;;;;;;18.45;9.00;;;16.10;37.80;;;;;;5018583;28;20403;-77
2022/05/21 07:34:45;;;;;;;16.65;7.80;;;16.00;37.50;;;;;;5020340;28;20451;-76
2022/05/21 07:37:11;;;;;;;21.80;8.63;;;15.90;38.70;;;;;;5017438;28;20478;-75
2022/05/21 07:39:37;;;;;;;23.08;9.52;;;15.80;39.60;;;;;;5013241;28;20401;-75
2022/05/21 07:42:03;;;;;;;29.40;10.00;;;15.80;39.70;;;;;;5014780;28;20511;-77
2022/05/21 07:44:28;;;;;;;24.60;10.10;;;15.70;39.80;;;;;;5011081;28;20441;-76
2022/05/21 07:46:54;;;;;;;18.43;9.40;;;15.70;39.00;;;;;;5007868;28;20423;-77
2022/05/21 07:49:19;;;;;;;18.90;9.40;;;15.70;39.90;;;;;;5006767;28;20431;-76
2022/05/21 07:51:45;;;;;;;22.67;8.93;;;15.70;40.40;;;;;;5009328;28;20420;-74
2022/05/21 07:54:11;;;;;;;30.42;10.07;;;15.70;40.80;;;;;;5009487;28;20444;-76
2022/05/21 07:56:37;;;;;;;21.10;9.37;;;15.90;40.50;;;;;;5009757;28;20412;-79
2022/05/21 07:59:03;;;;;;;22.85;8.90;;;16.20;38.00;;;;;;5010776;28;20404;-77
2022/05/21 08:01:28;;;;;;;23.10;9.55;;;16.40;37.10;;;;;;5010362;28;20407;-78
2022/05/21 08:03:54;;;;;;;21.48;9.75;;;16.40;36.40;;;;;;5010674;28;20920;-78
2022/05/21 08:06:19;;;;;;;23.47;9.43;;;16.50;36.20;;;;;;5009801;28;20403;-76
2022/05/21 08:08:46;;;;;;;22.33;9.30;;;16.60;35.70;;;;;;5011306;28;20964;-78
2022/05/21 08:11:12;;;;;;;25.88;9.10;;;16.80;34.40;;;;;;5010058;28;20418;-77
2022/05/21 08:13:39;;;;;;;20.17;8.65;;;16.80;34.20;;;;;;5006179;28;20495;-78
2022/05/21 08:16:05;;;;;;;19.15;9.38;;;16.80;35.00;;;;;;5016352;28;20794;-78
2022/05/21 08:18:31;;;;;;;17.80;7.85;;;16.70;34.10;;;;;;5006544;28;20417;-74
2022/05/21 08:20:57;;;;;;;22.90;8.30;;;16.80;34.00;;;;;;5006444;28;20834;-76
2022/05/21 08:28:51;;;;;;;19.58;8.20;;;16.80;32.30;;;;;;5006653;28;20424;-77
2022/05/21 08:31:17;;;;;;;18.63;7.67;;;16.60;33.90;;;;;;5008524;28;20409;-75
2022/05/21 08:33:42;;;;;;;20.80;8.60;;;16.60;34.10;;;;;;5011018;28;20499;-75
2022/05/21 08:36:08;;;;;;;19.73;7.30;;;16.60;34.30;;;;;;5006736;28;20459;-75
2022/05/21 08:38:34;;;;;;;20.20;8.20;;;16.60;33.60;;;;;;5006449;28;20417;-76
2022/05/21 08:41:31;;;;;;;22.40;8.32;;;16.60;33.40;;;;;;5018142;28;20480;-77
2022/05/21 08:44:01;;;;;;;23.33;8.73;;;16.70;32.90;;;;;;5015785;28;20429;-74
2022/05/21 08:47:06;;;;;;;20.83;8.38;;;16.90;32.50;;;;;;5014373;28;20535;-76
2022/05/21 08:49:41;;;;;;;17.27;8.40;;;16.90;32.70;;;;;;5008021;28;20492;-75
2022/05/21 08:52:23;;;;;;;23.13;8.57;;;16.80;32.00;;;;;;5013870;28;20412;-75
2022/05/21 08:54:51;;;;;;;19.70;8.30;;;16.70;33.00;;;;;;5013643;28;20449;-77
2022/05/21 08:57:36;;;;;;;24.83;8.60;;;16.90;32.90;;;;;;5021539;28;20472;-77
2022/05/21 09:00:10;;;;;;;21.55;8.52;;;17.20;31.90;;;;;;5011179;28;20405;-74
2022/05/21 09:02:37;;;;;;;14.85;7.50;;;17.70;29.60;;;;;;5002957;28;20501;-77
2022/05/21 09:05:09;;;;;;;17.25;7.35;;;18.00;28.20;;;;;;5012752;28;20412;-77
2022/05/21 09:07:54;;;;;;;15.83;7.47;;;17.90;29.10;;;;;;5025680;28;20467;-75
2022/05/21 09:11:04;;;;;;;21.52;8.20;;;17.60;28.70;;;;;;5018192;28;20404;-78
2022/05/21 09:13:56;;;;;;;17.98;7.70;;;17.30;29.40;;;;;;4994939;28;20525;-79
2022/05/21 09:19:08;;;;;;;19.55;6.40;;;18.50;26.70;;;;;;5005926;28;20404;-76
2022/05/21 09:21:39;;;;;;;19.23;6.93;;;19.00;25.00;;;;;;5014669;28;20428;-77
2022/05/21 09:24:07;;;;;;;18.40;7.05;;;19.30;24.20;;;;;;5011968;28;20401;-79
2022/05/21 09:26:42;;;;;;;18.10;7.20;;;19.80;23.10;;;;;;5009151;28;20943;-77
2022/05/21 09:29:19;;;;;;;11.80;5.53;;;20.00;21.20;;;;;;5011038;28;20977;-77
2022/05/21 09:31:45;;;;;;;15.95;6.10;;;19.90;21.10;;;;;;5015129;28;20498;-76
2022/05/21 09:34:20;;;;;;;21.52;7.60;;;19.80;21.00;;;;;;5018509;28;20455;-78
2022/05/21 09:36:45;;;;;;;14.23;6.40;;;19.60;22.30;;;;;;5017022;28;20400;-76
2022/05/21 09:39:11;;;;;;;17.87;6.60;;;19.50;22.70;;;;;;5014521;28;20419;-77
2022/05/21 09:41:37;;;;;;;16.15;6.30;;;19.60;22.50;;;;;;5015438;28;20401;-77
2022/05/21 09:47:23;;;;;;;15.95;6.00;;;19.60;21.50;;;;;;5019024;28;20511;-77
2022/05/21 09:50:05;;;;;;;18.70;7.40;;;19.40;22.40;;;;;;5012081;28;20485;-76
2022/05/21 09:52:33;;;;;;;15.52;5.90;;;19.70;22.80;;;;;;5013126;28;20423;-76
2022/05/21 09:54:59;;;;;;;12.15;6.15;;;19.80;22.10;;;;;;5017453;28;20396;-78
2022/05/21 09:57:26;;;;;;;16.85;6.60;;;19.80;20.70;;;;;;5018029;28;20444;-76
2022/05/21 10:00:13;;;;;;;12.07;5.82;;;19.70;21.30;;;;;;5008255;28;20459;-75
2022/05/21 10:02:45;;;;;;;19.98;6.80;;;19.80;20.70;;;;;;5011808;28;20443;-77
2022/05/21 10:05:20;;;;;;;13.77;6.05;;;19.50;21.20;;;;;;5015668;28;20413;-78
2022/05/21 10:10:58;;;;;;;18.10;5.72;;;19.20;22.70;;;;;;5017565;28;20403;-76
2022/05/21 10:13:25;;;;;;;17.60;5.93;;;19.20;23.30;;;;;;5016348;28;20417;-76
2022/05/21 10:15:59;;;;;;;16.40;5.95;;;19.00;24.00;;;;;;5011181;28;20408;-75
2022/05/21 10:18:43;;;;;;;21.95;6.50;;;19.00;24.00;;;;;;5010182;28;20418;-76
2022/05/21 10:21:45;;;;;;;17.05;6.15;;;19.00;24.50;;;;;;5008239;28;20423;-75
2022/05/21 10:24:24;;;;;;;13.13;5.60;;;19.20;23.50;;;;;;5006165;28;20432;-76
2022/05/21 10:26:50;;;;;;;16.17;5.72;;;19.50;22.30;;;;;;5012718;28;20480;-76
2022/05/21 10:30:13;;;;;;;13.52;5.53;;;19.30;23.10;;;;;;5008788;28;20789;-76
2022/05/21 10:32:54;;;;;;;19.10;6.38;;;19.50;22.50;;;;;;4990082;28;20418;-75
2022/05/21 10:35:23;;;;;;;17.73;6.00;;;19.50;20.80;;;;;;4992330;28;20421;-76
2022/05/21 10:38:20;;;;;;;16.85;6.47;;;19.90;20.30;;;;;;5002156;28;20416;-76
2022/05/21 10:41:17;;;;;;;18.90;5.60;;;20.40;18.40;;;;;;5011161;28;20400;-77
2022/05/21 10:44:31;;;;;;;15.60;5.63;;;20.80;18.10;;;;;;5021259;28;20415;-75
2022/05/21 10:47:08;;;;;;;13.32;5.30;;;20.90;17.00;;;;;;5025113;28;20412;-76
2022/05/21 10:49:37;;;;;;;16.80;5.85;;;20.80;17.20;;;;;;5014035;28;20901;-76
2022/05/21 10:52:16;;;;;;;15.95;6.00;;;20.50;17.60;;;;;;5013251;28;22050;-78
2022/05/21 10:55:13;;;;;;;12.05;5.40;;;20.40;18.70;;;;;;5013392;28;20421;-76
2022/05/21 10:57:57;;;;;;;13.00;4.90;;;20.50;18.50;;;;;;5006293;28;20418;-76
2022/05/21 11:00:28;;;;;;;14.70;5.63;;;20.20;17.60;;;;;;5008032;28;20400;-76
2022/05/21 11:03:31;;;;;;;13.15;5.72;;;20.00;18.70;;;;;;5009122;28;20429;-76
2022/05/21 11:06:29;;;;;;;15.82;5.53;;;20.20;19.10;;;;;;5010229;28;20493;-76
2022/05/21 11:09:17;;;;;;;15.93;5.80;;;20.50;18.90;;;;;;5012916;28;20417;-76
2022/05/21 11:11:46;;;;;;;13.90;4.82;;;20.50;18.70;;;;;;5011895;28;20416;-76
2022/05/21 11:14:14;;;;;;;14.45;4.97;;;20.80;16.90;;;;;;5013112;28;21917;-75
2022/05/21 11:17:04;;;;;;;13.65;5.10;;;20.90;16.10;;;;;;5011123;28;20407;-75
2022/05/21 11:19:41;;;;;;;12.55;5.07;;;20.80;15.20;;;;;;5008148;28;20466;-75
2022/05/21 11:22:32;;;;;;;11.20;5.13;;;20.70;16.10;;;;;;5010663;28;20878;-76
2022/05/21 11:25:07;;;;;;;11.00;5.10;;;20.50;15.50;;;;;;5014156;28;20543;-77
2022/05/21 11:27:56;;;;;;;16.38;6.00;;;20.30;16.30;;;;;;5016224;28;20472;-77
2022/05/21 11:30:22;;;;;;;15.50;5.20;;;20.20;16.70;;;;;;5010426;28;20424;-77
2022/05/21 11:38:42;;;;;;;16.70;5.20;;;20.10;17.80;;;;;;5011239;28;20835;-76
2022/05/21 11:41:30;;;;;;;12.25;5.10;;;20.10;17.80;;;;;;5007258;28;20497;-76
2022/05/21 11:47:07;;;;;;;11.73;5.05;;;20.50;17.40;;;;;;5011563;28;20407;-76
2022/05/21 11:49:41;;;;;;;10.47;4.87;;;20.90;16.30;;;;;;5013714;28;20401;-76
2022/05/21 11:52:25;;;;;;;13.35;5.38;;;20.90;15.60;;;;;;5025007;28;20822;-77
2022/05/21 11:54:51;;;;;;;16.30;5.28;;;20.90;15.30;;;;;;5016345;28;20401;-76
2022/05/21 11:57:36;;;;;;;12.43;5.07;;;20.90;15.00;;;;;;5012473;28;20752;-76
2022/05/21 12:00:11;;;;;;;17.53;5.60;;;20.60;15.60;;;;;;5010148;28;20597;-79
2022/05/21 12:02:39;;;;;;;11.60;4.82;;;20.90;15.10;;;;;;5011850;28;20408;-79
2022/05/21 12:05:08;;;;;;;14.57;4.70;;;21.20;14.50;;;;;;5010559;28;20423;-77
2022/05/21 12:07:43;;;;;;;13.50;5.40;;;21.70;14.20;;;;;;5007548;28;20526;-77
2022/05/21 12:10:49;;;;;;;13.38;5.10;;;22.00;13.50;;;;;;5006086;28;20408;-77
2022/05/21 12:13:21;;;;;;;13.60;5.03;;;22.30;12.00;;;;;;5011983;28;20491;-77
2022/05/21 12:15:50;;;;;;;10.90;5.00;;;22.30;12.50;;;;;;5015785;28;20511;-74
2022/05/21 12:18:34;;;;;;;14.32;5.22;;;22.20;12.70;;;;;;5020688;28;20904;-76
2022/05/21 12:21:00;;;;;;;9.48;4.53;;;22.00;13.30;;;;;;5015150;28;20423;-77
2022/05/21 12:23:26;;;;;;;9.93;4.55;;;22.20;12.80;;;;;;5017690;28;20438;-76
2022/05/21 12:26:03;;;;;;;15.60;4.83;;;22.40;12.30;;;;;;5012700;28;20416;-77
2022/05/21 12:28:50;;;;;;;12.63;5.00;;;22.70;12.20;;;;;;5010232;28;20524;-77
2022/05/21 12:31:23;;;;;;;10.35;4.10;;;23.10;11.40;;;;;;5015438;28;20464;-77
2022/05/21 12:34:14;;;;;;;13.60;5.00;;;23.40;11.50;;;;;;5012610;28;20405;-74
2022/05/21 12:36:55;;;;;;;11.33;5.13;;;23.20;11.20;;;;;;5011307;28;20408;-75
2022/05/21 12:39:26;;;;;;;13.55;4.60;;;22.90;11.70;;;;;;5010278;28;20400;-78
2022/05/21 12:41:55;;;;;;;16.05;5.07;;;22.70;10.80;;;;;;5013547;28;20415;-77
2022/05/21 12:44:43;;;;;;;13.60;5.47;;;22.50;11.20;;;;;;5016485;28;20400;-76
2022/05/21 12:47:22;;;;;;;11.63;5.13;;;22.10;12.20;;;;;;5011234;28;20426;-76
2022/05/21 12:49:50;;;;;;;15.05;5.38;;;22.10;13.10;;;;;;5014250;28;20447;-76
2022/05/21 12:52:43;;;;;;;10.60;4.75;;;22.30;12.20;;;;;;5018138;28;20404;-77
2022/05/21 12:55:18;;;;;;;14.85;5.28;;;22.20;11.90;;;;;;5011567;28;20909;-77
2022/05/21 12:57:44;;;;;;;10.70;4.95;;;22.10;12.60;;;;;;5013002;28;20762;-78
2022/05/21 13:00:10;;;;;;;14.38;5.30;;;21.90;12.60;;;;;;5013913;28;20874;-77
2022/05/21 13:03:06;;;;;;;11.75;4.97;;;21.80;13.30;;;;;;5015266;28;20396;-76
2022/05/21 13:05:35;;;;;;;12.55;4.72;;;21.60;13.00;;;;;;5016446;28;20503;-76
2022/05/21 13:08:01;;;;;;;12.65;5.22;;;21.40;14.80;;;;;;5012256;28;20509;-74
2022/05/21 13:10:30;;;;;;;16.58;5.38;;;21.50;13.80;;;;;;5015855;28;20394;-76
2022/05/21 13:13:00;;;;;;;10.60;4.90;;;21.50;14.30;;;;;;5015852;28;20681;-76
2022/05/21 13:15:37;;;;;;;11.85;4.75;;;21.80;13.70;;;;;;5009833;28;20450;-76
2022/05/21 13:18:46;;;;;;;10.75;4.40;;;22.10;12.60;;;;;;5014191;28;20476;-76
2022/05/21 13:21:43;;;;;;;14.07;4.90;;;22.20;11.80;;;;;;5015718;28;20396;-76
2022/05/21 13:24:27;;;;;;;10.23;4.60;;;22.50;12.10;;;;;;5014105;28;20413;-77
2022/05/21 13:27:15;;;;;;;14.07;5.33;;;22.60;10.90;;;;;;5015539;28;20535;-76
2022/05/21 13:29:42;;;;;;;13.85;5.20;;;22.70;11.30;;;;;;5013900;28;20408;-75
2022/05/21 13:32:23;;;;;;;10.25;5.25;;;23.80;10.40;;;;;;5012883;28;20896;-76